Main page
METAR-TAF:

METAR-TAF

Airports :

Gran Canaria Airport

Gran Canaria, Spain

latitude: 27-56N, longitude: 015-23W, elevation: 23 m

Current weather observation

The report was made 44 minutes ago, at 19:00 UTC
Wind 20 kt from the North
Temperature 19°C
Humidity 60%
Pressure 1018 hPa
Visibility 10 km or more
Few clouds at a height of 3000 ft

METAR: GCLP 191900Z 35020KT 9999 FEW030 19/11 Q1018 NOSIG

Time: 20:44 (19:44 UTC)

Forecast

The report was made 5 hours and 44 minutes ago, at 14:00 UTC
Forecast valid from 19 at 15 UTC to 20 at 15 UTC
Wind 22 kt from the North
Visibility 10 km or more
Few clouds at a height of 3000 ft
Probability 30% :
Temporary
from 19 at 15 UTC to 19 at 20 UTC
Wind 22 kt from the North with gusts up to 32 kt
Probability 30% :
Temporary
from 20 at 04 UTC to 20 at 09 UTC
drizzle

TAF: GCLP 191400Z 1915/2015 01022KT 9999 FEW030 TX22/2014Z TN17/2006Z PROB30 TEMPO 1915/1920 01022G32KT PROB30 TEMPO 2004/2009 DZ

Weather observations and forecasts of more than 4000 airports (METAR and TAF reports).

The available stations are represented by yellow and red dots on the map.

Hover mouse over dot to see the name of the station.

Then click to see weather observations and forecasts.

To change the map : click on the green buttons with a black cross to zoom in, on the green button with a dash to zoom out, or on the green arrows for adjacent maps.


METAR-TAF: